Time;durP1;ratioP1;P1;durP2;ratioP2;P2;SDS_P1;SDS_P2;PMS_P1;PMS_P2;Temp;Humidity;BMP_temperature;BMP_pressure;BME280_temperature;BME280_humidity;BME280_pressure;Samples;Min_cycle;Max_cycle;Signal;HPM_P1;HPM_P2
2021/05/08 00:01:51;;;;;;;;;;;3.60;99.90;;;;;;5051151;28;19927;-69
2021/05/08 00:04:17;;;;;;;;;;;3.50;99.90;;;;;;5049289;28;19986;-69
2021/05/08 00:06:45;;;;;;;;;;;3.50;99.90;;;;;;5031533;28;19916;-69
2021/05/08 00:09:13;;;;;;;;;;;3.50;99.90;;;;;;5049572;28;19933;-69
2021/05/08 00:11:43;;;;;;;;;;;3.50;99.90;;;;;;5053048;28;20651;-69
2021/05/08 00:14:08;;;;;;;;;;;3.40;99.90;;;;;;5052234;28;19943;-69
2021/05/08 00:16:37;;;;;;;;;;;3.50;99.90;;;;;;5049489;28;20286;-69
2021/05/08 00:19:02;;;;;;;;;;;3.50;99.90;;;;;;5031357;28;19921;-69
2021/05/08 00:21:28;;;;;;;;;;;3.50;99.90;;;;;;5049644;28;20423;-69
2021/05/08 00:23:53;;;;;;;;;;;3.50;99.90;;;;;;5029790;28;19932;-69
2021/05/08 00:26:19;;;;;;;;;;;3.40;99.90;;;;;;5050125;28;20361;-69
2021/05/08 00:28:48;;;;;;;;;;;3.50;99.90;;;;;;5031573;28;19925;-69
2021/05/08 00:31:14;;;;;;;;;;;3.40;99.90;;;;;;5050202;28;19944;-69
2021/05/08 00:33:39;;;;;;;;;;;3.40;99.90;;;;;;5033641;28;20347;-69
2021/05/08 00:36:06;;;;;;;;;;;3.40;99.90;;;;;;5030097;28;19928;-69
2021/05/08 00:38:31;;;;;;;;;;;3.40;99.90;;;;;;5048827;28;19999;-69
2021/05/08 00:40:57;;;;;;;;;;;3.40;99.90;;;;;;5049346;28;19964;-68
2021/05/08 00:43:22;;;;;;;;;;;3.40;99.90;;;;;;5048429;28;20428;-69
2021/05/08 00:45:48;;;;;;;;;;;3.40;99.90;;;;;;5050790;28;20365;-69
2021/05/08 00:48:14;;;;;;;;;;;3.40;99.90;;;;;;5049060;28;19920;-69
2021/05/08 00:50:42;;;;;;;;;;;3.40;99.90;;;;;;5049596;28;19986;-69
2021/05/08 00:53:08;;;;;;;;;;;3.40;99.90;;;;;;5014837;28;19956;-69
2021/05/08 00:55:36;;;;;;;;;;;3.50;99.90;;;;;;5018688;28;20310;-69
2021/05/08 00:58:06;;;;;;;;;;;3.40;99.90;;;;;;5048297;28;20293;-69
2021/05/08 01:00:31;;;;;;;;;;;3.50;99.90;;;;;;5031363;28;19962;-69
2021/05/08 01:02:57;;;;;;;;;;;3.50;99.90;;;;;;5049368;28;20345;-69
2021/05/08 01:05:22;;;;;;;;;;;3.50;99.90;;;;;;5048579;28;19942;-69
2021/05/08 01:07:48;;;;;;;;;;;3.50;99.90;;;;;;5047814;28;19933;-68
2021/05/08 01:10:18;;;;;;;;;;;3.50;99.90;;;;;;5013526;28;20377;-68
2021/05/08 01:12:44;;;;;;;;;;;3.50;99.90;;;;;;5048383;28;19947;-69
2021/05/08 01:15:10;;;;;;;;;;;3.40;99.90;;;;;;5014041;28;19920;-69
2021/05/08 01:17:36;;;;;;;;;;;3.50;99.90;;;;;;5013896;28;19971;-68
2021/05/08 01:20:04;;;;;;;;;;;3.40;99.90;;;;;;5031813;28;20056;-69
2021/05/08 01:22:32;;;;;;;;;;;3.40;99.90;;;;;;5029275;28;19920;-69
2021/05/08 01:24:59;;;;;;;;;;;3.40;99.90;;;;;;5048839;28;19966;-69
2021/05/08 01:27:25;;;;;;;;;;;3.40;99.90;;;;;;5027299;28;20442;-68
2021/05/08 01:29:53;;;;;;;;;;;3.40;99.90;;;;;;5015786;28;19917;-69
2021/05/08 01:32:18;;;;;;;;;;;3.40;99.90;;;;;;5049227;28;19970;-69
2021/05/08 01:34:49;;;;;;;;;;;3.40;99.90;;;;;;5048511;28;19921;-69
2021/05/08 01:37:14;;;;;;;;;;;3.40;99.90;;;;;;5047768;28;20409;-69
2021/05/08 01:39:45;;;;;;;;;;;3.30;99.90;;;;;;5046966;28;19924;-69
2021/05/08 01:42:10;;;;;;;;;;;3.30;99.90;;;;;;5029425;28;19921;-69
2021/05/08 01:44:38;;;;;;;;;;;3.30;99.90;;;;;;5015701;28;20340;-69
2021/05/08 01:47:04;;;;;;;;;;;3.20;99.90;;;;;;5048287;28;19930;-69
2021/05/08 01:49:32;;;;;;;;;;;3.20;99.90;;;;;;5029881;28;20253;-68
2021/05/08 01:51:57;;;;;;;;;;;3.20;99.90;;;;;;5031250;28;20805;-69
2021/05/08 01:54:25;;;;;;;;;;;3.20;99.90;;;;;;5015646;28;19917;-69
2021/05/08 01:56:50;;;;;;;;;;;3.30;99.90;;;;;;5048144;28;19927;-69
2021/05/08 01:59:18;;;;;;;;;;;3.20;99.90;;;;;;5047698;28;19920;-69
2021/05/08 02:01:49;;;;;;;;;;;3.20;99.90;;;;;;5048372;28;19967;-69
2021/05/08 02:04:16;;;;;;;;;;;3.20;99.90;;;;;;5046151;28;19929;-69
2021/05/08 02:06:42;;;;;;;;;;;3.20;99.90;;;;;;5047638;28;20266;-69
2021/05/08 02:09:07;;;;;;;;;;;3.20;99.90;;;;;;5011457;28;19930;-69
2021/05/08 02:11:33;;;;;;;;;;;3.20;99.90;;;;;;5008274;28;19964;-69
2021/05/08 02:13:58;;;;;;;;;;;3.10;99.90;;;;;;5006249;28;19932;-69
2021/05/08 02:16:24;;;;;;;;;;;3.10;99.90;;;;;;5009094;28;20008;-69
2021/05/08 02:18:49;;;;;;;;;;;3.20;99.90;;;;;;5009606;28;19998;-69
2021/05/08 02:21:15;;;;;;;;;;;3.10;99.90;;;;;;5010196;28;19918;-69
2021/05/08 02:23:40;;;;;;;;;;;3.10;99.90;;;;;;5009924;28;20707;-69
2021/05/08 02:26:08;;;;;;;;;;;3.00;99.90;;;;;;5006122;28;19971;-69
2021/05/08 02:28:36;;;;;;;;;;;3.10;99.90;;;;;;5006051;28;20524;-69
2021/05/08 02:31:01;;;;;;;;;;;3.00;99.90;;;;;;5007256;28;19921;-69
2021/05/08 02:33:27;;;;;;;;;;;3.00;99.90;;;;;;5007222;28;19917;-69
2021/05/08 02:35:55;;;;;;;;;;;3.00;99.90;;;;;;5007413;28;19931;-70
2021/05/08 02:38:23;;;;;;;;;;;3.00;99.90;;;;;;5007640;28;19922;-71
2021/05/08 02:40:49;;;;;;;;;;;3.00;99.90;;;;;;5005326;28;20254;-70
2021/05/08 02:43:16;;;;;;;;;;;3.00;99.90;;;;;;5005785;28;19925;-69
2021/05/08 02:45:42;;;;;;;;;;;3.00;99.90;;;;;;5007525;28;20028;-69
2021/05/08 02:48:08;;;;;;;;;;;3.00;99.90;;;;;;5007391;28;19921;-70
2021/05/08 02:50:33;;;;;;;;;;;2.90;99.90;;;;;;5005181;28;19971;-69
2021/05/08 02:52:59;;;;;;;;;;;2.90;99.90;;;;;;5022134;28;21841;-69
2021/05/08 02:55:24;;;;;;;;;;;3.00;99.90;;;;;;5006463;28;20012;-69
2021/05/08 02:57:50;;;;;;;;;;;3.00;99.90;;;;;;5006051;28;20360;-69
2021/05/08 03:00:16;;;;;;;;;;;2.90;99.90;;;;;;5022654;28;19967;-69
2021/05/08 03:02:41;;;;;;;;;;;2.90;99.90;;;;;;5008157;28;19922;-68
2021/05/08 03:05:07;;;;;;;;;;;2.90;99.90;;;;;;5022354;28;19949;-69
2021/05/08 03:07:35;;;;;;;;;;;2.90;99.90;;;;;;5028311;28;19925;-69
2021/05/08 03:10:00;;;;;;;;;;;2.90;99.90;;;;;;5047965;28;19956;-69
2021/05/08 03:12:28;;;;;;;;;;;2.90;99.90;;;;;;5028977;28;20365;-69
2021/05/08 03:14:59;;;;;;;;;;;2.90;99.90;;;;;;5029412;28;19920;-69
2021/05/08 03:17:24;;;;;;;;;;;2.90;99.90;;;;;;5046522;28;19960;-69
2021/05/08 03:19:50;;;;;;;;;;;2.90;99.90;;;;;;5027636;28;20606;-69
2021/05/08 03:22:18;;;;;;;;;;;2.90;99.90;;;;;;5046360;28;19927;-69
2021/05/08 03:24:48;;;;;;;;;;;2.90;99.90;;;;;;5046138;28;19917;-68
2021/05/08 03:27:18;;;;;;;;;;;2.80;99.90;;;;;;5022396;28;19938;-68
2021/05/08 03:29:46;;;;;;;;;;;2.80;99.90;;;;;;5050931;28;20031;-69
2021/05/08 03:32:12;;;;;;;;;;;2.80;99.90;;;;;;5033076;28;20039;-68
2021/05/08 03:34:38;;;;;;;;;;;2.80;99.90;;;;;;5050787;28;20062;-68
2021/05/08 03:37:08;;;;;;;;;;;2.80;99.90;;;;;;5033090;28;20358;-68
2021/05/08 03:39:36;;;;;;;;;;;2.70;99.90;;;;;;5049467;28;19932;-69
2021/05/08 03:42:02;;;;;;;;;;;2.70;99.90;;;;;;5033456;28;19916;-69
2021/05/08 03:44:27;;;;;;;;;;;2.70;99.90;;;;;;5050153;28;19935;-69
2021/05/08 03:46:55;;;;;;;;;;;2.60;99.90;;;;;;5050994;28;19960;-68
2021/05/08 03:49:20;;;;;;;;;;;2.70;99.90;;;;;;5050559;28;19913;-68
2021/05/08 03:51:46;;;;;;;;;;;2.60;99.90;;;;;;5052013;28;20413;-69
2021/05/08 03:54:12;;;;;;;;;;;2.60;99.90;;;;;;5031157;28;20014;-68
2021/05/08 03:56:37;;;;;;;;;;;2.60;99.90;;;;;;5030875;28;20660;-68
2021/05/08 03:59:05;;;;;;;;;;;2.60;99.90;;;;;;5048677;28;20011;-69
2021/05/08 04:01:31;;;;;;;;;;;2.60;99.90;;;;;;5030006;28;19921;-68
2021/05/08 04:03:58;;;;;;;;;;;2.50;99.90;;;;;;5049923;28;19928;-68
2021/05/08 04:06:26;;;;;;;;;;;2.50;99.90;;;;;;5050900;28;19921;-68
2021/05/08 04:08:56;;;;;;;;;;;2.60;99.90;;;;;;5013429;28;20873;-68
2021/05/08 04:11:22;;;;;;;;;;;2.60;99.90;;;;;;5011715;28;19921;-68
2021/05/08 04:13:50;;;;;;;;;;;2.60;99.90;;;;;;5010982;28;19941;-68
2021/05/08 04:16:17;;;;;;;;;;;2.60;99.90;;;;;;5010447;28;19932;-69
2021/05/08 04:18:43;;;;;;;;;;;2.60;99.90;;;;;;5010248;28;20528;-69
2021/05/08 04:21:09;;;;;;;;;;;2.60;99.90;;;;;;5025762;28;19925;-68
2021/05/08 04:23:37;;;;;;;;;;;2.60;99.90;;;;;;5011552;28;20252;-68
2021/05/08 04:26:02;;;;;;;;;;;2.60;99.90;;;;;;5013651;28;19917;-69
2021/05/08 04:28:28;;;;;;;;;;;2.70;99.90;;;;;;5009655;28;19921;-68
2021/05/08 04:30:55;;;;;;;;;;;2.70;99.90;;;;;;5009705;28;20407;-69
2021/05/08 04:33:21;;;;;;;;;;;2.70;99.90;;;;;;5011635;28;19917;-68
2021/05/08 04:35:47;;;;;;;;;;;2.70;99.90;;;;;;5010677;28;20422;-68
2021/05/08 04:38:12;;;;;;;;;;;2.80;99.90;;;;;;5010754;28;20060;-69
2021/05/08 04:40:38;;;;;;;;;;;2.90;99.90;;;;;;5011064;28;20349;-68
2021/05/08 04:43:08;;;;;;;;;;;2.90;99.90;;;;;;5010782;28;19932;-68
2021/05/08 04:45:34;;;;;;;;;;;3.00;99.90;;;;;;5009246;28;19922;-69
2021/05/08 04:48:02;;;;;;;;;;;3.00;99.90;;;;;;5009561;28;20375;-68
2021/05/08 04:50:27;;;;;;;;;;;3.10;99.90;;;;;;5026338;28;19922;-68
2021/05/08 04:52:53;;;;;;;;;;;3.10;99.90;;;;;;5025723;28;19932;-68
2021/05/08 04:55:21;;;;;;;;;;;3.20;99.90;;;;;;5009698;28;20000;-68
2021/05/08 04:57:47;;;;;;;;;;;3.20;99.90;;;;;;5007746;28;20331;-68
2021/05/08 05:00:15;;;;;;;;;;;3.30;99.90;;;;;;5010242;28;19927;-68
2021/05/08 05:02:44;;;;;;;;;;;3.40;99.90;;;;;;5024462;28;20043;-68
2021/05/08 05:05:12;;;;;;;;;;;3.50;99.90;;;;;;5009325;28;19926;-68
2021/05/08 05:07:38;;;;;;;;;;;3.50;99.90;;;;;;5007982;28;19925;-69
2021/05/08 05:10:04;;;;;;;;;;;3.60;99.90;;;;;;5009574;28;20430;-68
2021/05/08 05:12:29;;;;;;;;;;;3.70;99.90;;;;;;5009987;28;19926;-69
2021/05/08 05:14:55;;;;;;;;;;;3.80;99.90;;;;;;5007995;28;19917;-69
2021/05/08 05:17:20;;;;;;;;;;;3.90;99.90;;;;;;5009633;28;20309;-68
2021/05/08 05:19:46;;;;;;;;;;;4.00;99.90;;;;;;5008674;28;21867;-68
2021/05/08 05:22:14;;;;;;;;;;;4.00;99.90;;;;;;5008151;28;19921;-68
2021/05/08 05:24:39;;;;;;;;;;;4.10;99.90;;;;;;5007595;28;19921;-68
2021/05/08 05:27:10;;;;;;;;;;;4.30;99.90;;;;;;5008779;28;19994;-69
2021/05/08 05:29:35;;;;;;;;;;;4.30;99.90;;;;;;5009102;28;19921;-68
2021/05/08 05:32:01;;;;;;;;;;;4.50;99.90;;;;;;5008730;28;19932;-68
2021/05/08 05:34:29;;;;;;;;;;;4.70;99.90;;;;;;5007989;28;19922;-69
2021/05/08 05:36:57;;;;;;;;;;;4.80;99.90;;;;;;5005875;28;19969;-69
2021/05/08 05:39:22;;;;;;;;;;;4.90;99.90;;;;;;5009848;28;19925;-69
2021/05/08 05:41:50;;;;;;;;;;;5.00;99.90;;;;;;5022986;28;20544;-69
2021/05/08 05:44:21;;;;;;;;;;;5.20;99.90;;;;;;5007621;28;19933;-68
2021/05/08 05:46:46;;;;;;;;;;;5.30;99.90;;;;;;5009343;28;20831;-68
2021/05/08 05:49:12;;;;;;;;;;;5.50;99.90;;;;;;5007698;28;20007;-68
2021/05/08 05:51:37;;;;;;;;;;;5.60;99.90;;;;;;5007531;28;19921;-68
2021/05/08 05:54:03;;;;;;;;;;;5.70;99.90;;;;;;5009476;28;19927;-69
2021/05/08 05:56:31;;;;;;;;;;;5.80;99.90;;;;;;5008208;28;19922;-68
2021/05/08 05:58:59;;;;;;;;;;;5.90;98.90;;;;;;5005345;28;19943;-68
2021/05/08 06:01:27;;;;;;;;;;;6.00;99.90;;;;;;5009031;28;19932;-68
2021/05/08 06:03:55;;;;;;;;;;;6.10;95.10;;;;;;5006896;28;19937;-69
2021/05/08 06:06:20;;;;;;;;;;;6.30;97.30;;;;;;5007987;28;19928;-69
2021/05/08 06:08:46;;;;;;;;;;;6.40;97.40;;;;;;5024937;28;19929;-68
2021/05/08 06:11:11;;;;;;;;;;;6.50;96.40;;;;;;5007709;28;19943;-69
2021/05/08 06:13:37;;;;;;;;;;;6.60;93.10;;;;;;5007256;28;19979;-69
2021/05/08 06:16:03;;;;;;;;;;;6.70;90.70;;;;;;5008982;28;19990;-68
2021/05/08 06:18:29;;;;;;;;;;;6.80;92.00;;;;;;5024505;28;20121;-69
2021/05/08 06:20:57;;;;;;;;;;;6.90;93.40;;;;;;5024404;28;20418;-68
2021/05/08 06:23:24;;;;;;;;;;;7.00;91.60;;;;;;5007872;28;19935;-70
2021/05/08 06:25:52;;;;;;;;;;;7.10;90.20;;;;;;5007946;28;19952;-69
2021/05/08 06:28:18;;;;;;;;;;;7.30;92.50;;;;;;5008303;28;19917;-68
2021/05/08 06:30:43;;;;;;;;;;;7.30;91.90;;;;;;5023443;28;19931;-68
2021/05/08 06:33:09;;;;;;;;;;;7.30;88.50;;;;;;5006614;28;19917;-69
2021/05/08 06:35:37;;;;;;;;;;;7.40;94.20;;;;;;5006911;28;20610;-68
2021/05/08 06:38:02;;;;;;;;;;;7.50;90.20;;;;;;5008728;28;19931;-69
2021/05/08 06:40:30;;;;;;;;;;;7.50;90.70;;;;;;5008146;28;19921;-69
2021/05/08 06:42:58;;;;;;;;;;;7.60;91.80;;;;;;5008435;28;19921;-69
2021/05/08 06:45:26;;;;;;;;;;;7.60;90.20;;;;;;5007123;28;20044;-69
2021/05/08 06:47:58;;;;;;;;;;;7.70;90.10;;;;;;5007552;28;19927;-68
2021/05/08 06:50:26;;;;;;;;;;;7.80;91.10;;;;;;5005729;28;19932;-69
2021/05/08 06:52:54;;;;;;;;;;;7.80;92.60;;;;;;5007193;28;19969;-69
2021/05/08 06:55:25;;;;;;;;;;;7.90;92.00;;;;;;5005065;28;19921;-68
2021/05/08 06:57:53;;;;;;;;;;;7.90;92.50;;;;;;5007742;28;19979;-69
2021/05/08 07:00:18;;;;;;;;;;;7.90;89.50;;;;;;5006912;28;19982;-69
2021/05/08 07:02:44;;;;;;;;;;;8.00;91.10;;;;;;5008243;28;19929;-69
2021/05/08 07:05:10;;;;;;;;;;;8.10;90.20;;;;;;5006844;28;20259;-70
2021/05/08 07:07:36;;;;;;;;;;;8.10;87.00;;;;;;5012457;28;19967;-69
2021/05/08 07:10:03;;;;;;;;;;;8.20;88.50;;;;;;5010527;28;19945;-69
2021/05/08 07:12:28;;;;;;;;;;;8.20;87.60;;;;;;5047158;28;19925;-69
2021/05/08 07:14:56;;;;;;;;;;;8.30;90.30;;;;;;5047015;28;19931;-69
2021/05/08 07:17:21;;;;;;;;;;;8.30;89.10;;;;;;5046888;28;19920;-69
2021/05/08 07:19:47;;;;;;;;;;;8.40;90.50;;;;;;5045729;28;19932;-69
2021/05/08 07:22:15;;;;;;;;;;;8.50;86.20;;;;;;5046411;28;19917;-69
2021/05/08 07:24:42;;;;;;;;;;;8.50;84.80;;;;;;5047309;28;20330;-70
2021/05/08 07:27:08;;;;;;;;;;;8.60;83.10;;;;;;5046757;28;19927;-69
2021/05/08 07:29:33;;;;;;;;;;;8.70;80.80;;;;;;5046298;28;19920;-69
2021/05/08 07:32:01;;;;;;;;;;;8.80;84.70;;;;;;5028371;28;20370;-69
2021/05/08 07:34:27;;;;;;;;;;;8.90;85.10;;;;;;5018928;28;20011;-70
2021/05/08 07:36:52;;;;;;;;;;;9.00;84.00;;;;;;5028295;28;20239;-69
2021/05/08 07:39:20;;;;;;;;;;;9.00;82.60;;;;;;5029370;28;20510;-69
2021/05/08 07:41:46;;;;;;;;;;;9.20;83.50;;;;;;5028450;28;19920;-69
2021/05/08 07:44:13;;;;;;;;;;;9.30;86.10;;;;;;5045543;28;19995;-70
2021/05/08 07:46:39;;;;;;;;;;;9.40;84.50;;;;;;5027881;28;19913;-71
2021/05/08 07:49:10;;;;;;;;;;;9.50;84.40;;;;;;5046633;28;19928;-70
2021/05/08 07:51:38;;;;;;;;;;;9.70;84.50;;;;;;5046000;28;19931;-70
2021/05/08 07:54:04;;;;;;;;;;;9.80;82.70;;;;;;5046564;28;20201;-70
2021/05/08 07:56:32;;;;;;;;;;;10.00;89.00;;;;;;5028956;28;19996;-68
2021/05/08 07:58:58;;;;;;;;;;;10.10;76.70;;;;;;5028973;28;19998;-69
2021/05/08 08:01:25;;;;;;;;;;;10.40;88.10;;;;;;5045421;28;20288;-69
2021/05/08 08:03:51;;;;;;;;;;;10.60;92.00;;;;;;5028554;28;20591;-69
2021/05/08 08:06:18;;;;;;;;;;;10.80;83.10;;;;;;5045510;28;19916;-69
2021/05/08 08:08:46;;;;;;;;;;;10.90;81.20;;;;;;5025053;28;19939;-69
2021/05/08 08:11:12;;;;;;;;;;;11.00;82.00;;;;;;5044506;28;21741;-69
2021/05/08 08:13:40;;;;;;;;;;;11.10;81.00;;;;;;5048050;28;19916;-69
2021/05/08 08:16:08;;;;;;;;;;;11.30;84.50;;;;;;5048346;28;19916;-69
2021/05/08 08:18:35;;;;;;;;;;;11.30;86.80;;;;;;5049737;28;19913;-69
2021/05/08 08:21:01;;;;;;;;;;;11.30;81.00;;;;;;5048494;28;20407;-69
2021/05/08 08:23:29;;;;;;;;;;;11.40;79.80;;;;;;5049124;28;19978;-69
2021/05/08 08:25:55;;;;;;;;;;;11.50;84.60;;;;;;5048421;28;19979;-70
2021/05/08 08:28:25;;;;;;;;;;;11.50;74.30;;;;;;5030790;28;20028;-69
2021/05/08 08:30:51;;;;;;;;;;;11.40;72.40;;;;;;5028908;28;19927;-70
2021/05/08 08:33:17;;;;;;;;;;;11.50;73.90;;;;;;5049648;28;19920;-69
2021/05/08 08:35:47;;;;;;;;;;;11.60;74.70;;;;;;5030759;28;19920;-69
2021/05/08 08:38:15;;;;;;;;;;;11.60;76.90;;;;;;5049318;28;19932;-70
2021/05/08 08:40:40;;;;;;;;;;;11.70;76.00;;;;;;5049558;28;20035;-69
2021/05/08 08:43:08;;;;;;;;;;;11.50;70.50;;;;;;5048384;28;20334;-69
2021/05/08 08:45:39;;;;;;;;;;;11.60;75.60;;;;;;5031076;28;20135;-70
2021/05/08 08:48:07;;;;;;;;;;;11.60;71.80;;;;;;5047436;28;19928;-69
2021/05/08 08:50:37;;;;;;;;;;;11.60;72.90;;;;;;5049985;28;20049;-69
2021/05/08 08:53:08;;;;;;;;;;;11.70;76.40;;;;;;5048431;28;19978;-70
2021/05/08 08:55:34;;;;;;;;;;;11.80;77.20;;;;;;5032006;28;19928;-69
2021/05/08 08:58:04;;;;;;;;;;;11.90;77.00;;;;;;5030397;28;19927;-70
2021/05/08 09:00:29;;;;;;;;;;;11.90;71.80;;;;;;5029321;28;19924;-69
2021/05/08 09:02:57;;;;;;;;;;;11.90;74.40;;;;;;5027236;28;19970;-70
2021/05/08 09:05:28;;;;;;;;;;;12.00;78.30;;;;;;5011827;28;19931;-69
2021/05/08 09:07:53;;;;;;;;;;;12.00;68.10;;;;;;5021432;28;20031;-70
2021/05/08 09:10:26;;;;;;;;;;;12.20;74.70;;;;;;5028099;28;21810;-69
2021/05/08 09:12:52;;;;;;;;;;;12.20;66.50;;;;;;5029334;28;19948;-69
2021/05/08 09:15:29;;;;;;;;;;;12.00;64.70;;;;;;5048246;28;20374;-70
2021/05/08 09:18:00;;;;;;;;;;;12.10;71.80;;;;;;5046222;28;20012;-69
2021/05/08 09:20:39;;;;;;;;;;;12.00;65.70;;;;;;5047501;28;20282;-70
2021/05/08 09:23:05;;;;;;;;;;;12.20;73.00;;;;;;5029572;28;20774;-70
2021/05/08 09:25:30;;;;;;;;;;;12.20;67.80;;;;;;5028946;28;20040;-70
2021/05/08 09:27:59;;;;;;;;;;;12.10;66.00;;;;;;5029865;28;19928;-70
2021/05/08 09:30:24;;;;;;;;;;;12.30;68.70;;;;;;5045999;28;19931;-70
2021/05/08 09:32:53;;;;;;;;;;;12.20;66.10;;;;;;5047960;28;19920;-69
2021/05/08 09:35:23;;;;;;;;;;;12.30;71.50;;;;;;5029467;28;19920;-69
2021/05/08 09:37:49;;;;;;;;;;;12.40;69.50;;;;;;5046988;28;19923;-70
2021/05/08 09:40:33;;;;;;;;;;;12.50;69.20;;;;;;5027813;28;20378;-69
2021/05/08 09:42:59;;;;;;;;;;;12.70;68.90;;;;;;5028063;28;20063;-70
2021/05/08 09:45:27;;;;;;;;;;;12.80;70.40;;;;;;5044966;28;19925;-69
2021/05/08 09:47:56;;;;;;;;;;;12.90;67.70;;;;;;5044972;28;19920;-69
2021/05/08 09:50:23;;;;;;;;;;;13.00;66.20;;;;;;5029707;28;19917;-70
2021/05/08 09:52:52;;;;;;;;;;;13.00;67.60;;;;;;5046250;28;20045;-70
2021/05/08 09:55:21;;;;;;;;;;;13.20;67.60;;;;;;5046812;28;19967;-70
2021/05/08 09:58:06;;;;;;;;;;;13.40;69.90;;;;;;5045738;28;19917;-70
2021/05/08 10:00:32;;;;;;;;;;;13.60;69.40;;;;;;5029217;28;19917;-69
2021/05/08 10:03:05;;;;;;;;;;;13.90;70.00;;;;;;5028308;28;19921;-69
2021/05/08 10:05:31;;;;;;;;;;;13.90;62.00;;;;;;5026971;28;19952;-70
2021/05/08 10:07:57;;;;;;;;;;;13.90;60.50;;;;;;5028149;28;20019;-69
2021/05/08 10:10:23;;;;;;;;;;;13.90;62.50;;;;;;5043382;28;19921;-70
2021/05/08 10:12:48;;;;;;;;;;;14.00;61.30;;;;;;5012016;28;19921;-70
2021/05/08 10:15:16;;;;;;;;;;;13.90;66.30;;;;;;5047204;28;20298;-70
2021/05/08 10:17:43;;;;;;;;;;;13.90;61.50;;;;;;5013958;28;20002;-71
2021/05/08 10:20:09;;;;;;;;;;;13.80;60.00;;;;;;5028960;28;19920;-70
2021/05/08 10:22:37;;;;;;;;;;;13.80;57.00;;;;;;5029258;28;19917;-70
2021/05/08 10:25:03;;;;;;;;;;;13.90;62.10;;;;;;5046197;28;20335;-70
2021/05/08 10:27:29;;;;;;;;;;;14.00;58.60;;;;;;5045457;28;20399;-69
2021/05/08 10:29:54;;;;;;;;;;;13.70;56.40;;;;;;5044190;28;19924;-69
2021/05/08 10:32:22;;;;;;;;;;;13.90;60.90;;;;;;5044575;28;19928;-69
2021/05/08 10:34:49;;;;;;;;;;;14.10;59.50;;;;;;5027560;28;19932;-70
2021/05/08 10:37:15;;;;;;;;;;;14.30;58.00;;;;;;5045395;28;19981;-69
2021/05/08 10:40:01;;;;;;;;;;;14.50;62.00;;;;;;5026996;28;19917;-70
2021/05/08 10:42:32;;;;;;;;;;;14.70;64.10;;;;;;5028873;28;20318;-69
2021/05/08 10:44:58;;;;;;;;;;;14.90;55.40;;;;;;5045997;28;19920;-69
2021/05/08 10:47:24;;;;;;;;;;;14.90;59.10;;;;;;5045820;28;19931;-70
2021/05/08 10:50:08;;;;;;;;;;;15.10;56.30;;;;;;5028137;28;19916;-69
2021/05/08 10:52:52;;;;;;;;;;;15.30;56.30;;;;;;5045393;28;20222;-70
2021/05/08 10:55:23;;;;;;;;;;;15.20;56.20;;;;;;5031805;28;19917;-70
2021/05/08 10:58:07;;;;;;;;;;;15.40;59.40;;;;;;5027969;28;19921;-70
2021/05/08 11:00:43;;;;;;;;;;;15.60;55.40;;;;;;5045329;28;19928;-70
2021/05/08 11:03:08;;;;;;;;;;;15.50;53.10;;;;;;5045694;28;19978;-69
2021/05/08 11:05:39;;;;;;;;;;;15.50;52.10;;;;;;5029266;28;20281;-69
2021/05/08 11:08:26;;;;;;;;;;;15.70;52.90;;;;;;5045837;28;19986;-70
2021/05/08 11:10:55;;;;;;;;;;;16.00;55.30;;;;;;5045824;28;19922;-70
2021/05/08 11:13:24;;;;;;;;;;;15.90;53.90;;;;;;5027318;28;19920;-70
2021/05/08 11:15:54;;;;;;;;;;;15.70;49.50;;;;;;5028385;28;19924;-70
2021/05/08 11:18:35;;;;;;;;;;;15.70;54.10;;;;;;5045090;28;19920;-70
2021/05/08 11:21:00;;;;;;;;;;;15.60;49.30;;;;;;5045775;28;19921;-70
2021/05/08 11:23:28;;;;;;;;;;;15.50;51.70;;;;;;5030801;28;20281;-70
2021/05/08 11:25:54;;;;;;;;;;;15.70;54.70;;;;;;5045962;28;19921;-70
2021/05/08 11:28:19;;;;;;;;;;;15.70;58.40;;;;;;5046218;28;20518;-70
2021/05/08 11:30:56;;;;;;;;;;;15.70;52.60;;;;;;5045155;28;19920;-70
2021/05/08 11:33:22;;;;;;;;;;;15.70;53.50;;;;;;5045060;28;19931;-70
2021/05/08 11:36:00;;;;;;;;;;;15.60;53.60;;;;;;5027031;28;19921;-70
2021/05/08 11:38:26;;;;;;;;;;;15.30;49.00;;;;;;5044562;28;19920;-70
2021/05/08 11:40:54;;;;;;;;;;;15.30;54.40;;;;;;5045433;28;19940;-70
2021/05/08 11:43:25;;;;;;;;;;;15.40;53.70;;;;;;5028506;28;19928;-70
2021/05/08 11:45:51;;;;;;;;;;;15.20;51.40;;;;;;5045140;28;19916;-70
2021/05/08 11:48:16;;;;;;;;;;;15.30;58.80;;;;;;5047525;28;19931;-70
2021/05/08 11:50:46;;;;;;;;;;;15.30;50.70;;;;;;5031048;28;20250;-71
2021/05/08 11:53:18;;;;;;;;;;;15.30;52.60;;;;;;5031687;28;19994;-71
2021/05/08 11:55:44;;;;;;;;;;;15.50;53.90;;;;;;5031943;28;19921;-70
2021/05/08 11:58:09;;;;;;;;;;;15.40;54.50;;;;;;5030807;28;19917;-70
2021/05/08 12:00:36;;;;;;;;;;;15.70;54.90;;;;;;5030593;28;19928;-70
2021/05/08 12:03:13;;;;;;;;;;;16.00;53.20;;;;;;5048440;28;19924;-70
2021/05/08 12:05:38;;;;;;;;;;;15.90;49.90;;;;;;5029586;28;19935;-70
2021/05/08 12:08:06;;;;;;;;;;;16.10;49.80;;;;;;5016904;28;19929;-69
2021/05/08 12:10:41;;;;;;;;;;;16.20;52.60;;;;;;5030889;28;19927;-70
2021/05/08 12:13:08;;;;;;;;;;;16.10;47.70;;;;;;5048073;28;19916;-69
2021/05/08 12:15:35;;;;;;;;;;;15.90;48.00;;;;;;5030404;28;21662;-71
2021/05/08 12:18:02;;;;;;;;;;;16.00;53.60;;;;;;5048155;28;19920;-71
2021/05/08 12:20:38;;;;;;;;;;;16.00;49.80;;;;;;5046956;28;19960;-68
2021/05/08 12:23:09;;;;;;;;;;;16.00;53.00;;;;;;5048084;28;19921;-68
2021/05/08 12:25:35;;;;;;;;;;;16.00;54.40;;;;;;5027901;28;19924;-68
2021/05/08 12:28:16;;;;;;;;;;;16.20;55.50;;;;;;5048973;28;19927;-69
2021/05/08 12:30:42;;;;;;;;;;;16.20;51.80;;;;;;5016942;28;19931;-69
2021/05/08 12:33:17;;;;;;;;;;;16.20;51.90;;;;;;5028637;28;19921;-69
2021/05/08 12:35:43;;;;;;;;;;;16.30;51.00;;;;;;5047809;28;19916;-69
2021/05/08 12:38:12;;;;;;;;;;;16.50;52.30;;;;;;5048132;28;19932;-69
2021/05/08 12:40:40;;;;;;;;;;;16.50;51.20;;;;;;5030267;28;19916;-69
2021/05/08 12:43:06;;;;;;;;;;;16.40;49.70;;;;;;5047814;28;19951;-69
2021/05/08 12:45:31;;;;;;;;;;;16.60;54.40;;;;;;5046164;28;20472;-69
2021/05/08 12:47:59;;;;;;;;;;;16.70;53.10;;;;;;5048536;28;20370;-69
2021/05/08 12:50:32;;;;;;;;;;;16.80;53.50;;;;;;5047709;28;19925;-69
2021/05/08 12:52:58;;;;;;;;;;;17.00;50.10;;;;;;5046949;28;19928;-69
2021/05/08 12:55:25;;;;;;;;;;;17.10;53.90;;;;;;5028052;28;19920;-68
2021/05/08 12:57:50;;;;;;;;;;;17.00;51.30;;;;;;5030552;28;19917;-69
2021/05/08 13:00:17;;;;;;;;;;;17.20;51.20;;;;;;5046895;28;19939;-70
2021/05/08 13:02:44;;;;;;;;;;;17.50;49.50;;;;;;5047253;28;20316;-69
2021/05/08 13:05:13;;;;;;;;;;;17.50;48.30;;;;;;5046635;28;19925;-69
2021/05/08 13:07:39;;;;;;;;;;;17.60;49.20;;;;;;5046877;28;20047;-69
2021/05/08 13:10:14;;;;;;;;;;;17.40;46.80;;;;;;5046814;28;19925;-69
2021/05/08 13:12:40;;;;;;;;;;;17.40;50.60;;;;;;5046296;28;19920;-69
2021/05/08 13:15:21;;;;;;;;;;;17.40;45.80;;;;;;5021061;28;20752;-70
2021/05/08 13:17:47;;;;;;;;;;;17.40;46.90;;;;;;5048037;28;20557;-69
2021/05/08 13:20:15;;;;;;;;;;;17.20;46.90;;;;;;5028543;28;19969;-70
2021/05/08 13:22:44;;;;;;;;;;;17.10;50.80;;;;;;5005473;28;20270;-70
2021/05/08 13:25:14;;;;;;;;;;;16.90;48.40;;;;;;5046413;28;19932;-70
2021/05/08 13:27:44;;;;;;;;;;;16.80;52.00;;;;;;5030128;28;19982;-70
2021/05/08 13:30:10;;;;;;;;;;;16.70;47.70;;;;;;5026148;28;19932;-69
2021/05/08 13:32:35;;;;;;;;;;;16.50;47.60;;;;;;5047565;28;19916;-70
2021/05/08 13:35:01;;;;;;;;;;;16.50;49.70;;;;;;5045915;28;19995;-70
2021/05/08 13:37:29;;;;;;;;;;;16.80;49.70;;;;;;5047177;28;20023;-70
2021/05/08 13:39:54;;;;;;;;;;;16.90;50.80;;;;;;5028617;28;19921;-69
2021/05/08 13:42:20;;;;;;;;;;;16.80;47.50;;;;;;5046186;28;19946;-70
2021/05/08 13:44:48;;;;;;;;;;;16.90;49.40;;;;;;5046719;28;19928;-71
2021/05/08 13:47:22;;;;;;;;;;;17.00;51.90;;;;;;5045087;28;19921;-70
2021/05/08 13:49:54;;;;;;;;;;;17.10;48.30;;;;;;5047483;28;19916;-70
2021/05/08 13:52:21;;;;;;;;;;;17.10;47.30;;;;;;5029372;28;20358;-70
2021/05/08 13:54:46;;;;;;;;;;;17.00;48.90;;;;;;5046965;28;19920;-70
2021/05/08 13:57:12;;;;;;;;;;;16.90;49.80;;;;;;5028287;28;19947;-70
2021/05/08 13:59:37;;;;;;;;;;;16.80;47.80;;;;;;5047255;28;19920;-70
2021/05/08 14:02:03;;;;;;;;;;;16.90;48.00;;;;;;5025690;28;20004;-70
2021/05/08 14:04:29;;;;;;;;;;;16.90;49.20;;;;;;5046708;28;20313;-70
2021/05/08 14:06:59;;;;;;;;;;;17.00;54.20;;;;;;5046470;28;19921;-70
2021/05/08 14:09:25;;;;;;;;;;;16.90;48.80;;;;;;5027661;28;19929;-71
2021/05/08 14:11:50;;;;;;;;;;;17.00;49.00;;;;;;5045654;28;20247;-71
2021/05/08 14:14:16;;;;;;;;;;;17.10;52.00;;;;;;5046507;28;19921;-70
2021/05/08 14:16:41;;;;;;;;;;;17.00;48.30;;;;;;5045772;28;19952;-70
2021/05/08 14:19:07;;;;;;;;;;;16.90;48.50;;;;;;5028756;28;19920;-71
2021/05/08 14:21:35;;;;;;;;;;;16.90;48.00;;;;;;5028351;28;19913;-70
2021/05/08 14:24:05;;;;;;;;;;;16.60;47.00;;;;;;5046483;28;19928;-71
2021/05/08 14:26:31;;;;;;;;;;;16.50;50.70;;;;;;5029844;28;19917;-71